Time;durP1;ratioP1;P1;durP2;ratioP2;P2;SDS_P1;SDS_P2;PMS_P1;PMS_P2;Temp;Humidity;BMP_temperature;BMP_pressure;BME280_temperature;BME280_humidity;BME280_pressure;Samples;Min_cycle;Max_cycle;Signal;HPM_P1;HPM_P2
2021/05/07 00:00:49;;;;;;;6.35;3.20;;;;;;;15.01;51.64;94490.63;2968985;39;20052;-69
2021/05/07 00:02:50;;;;;;;7.03;3.38;;;;;;;14.94;51.73;94487.94;2973831;39;20063;-70
2021/05/07 00:04:51;;;;;;;7.07;3.63;;;;;;;14.99;51.41;94488.19;2971687;39;20084;-70
2021/05/07 00:06:53;;;;;;;6.80;3.10;;;;;;;14.98;51.40;94491.84;2973303;39;20340;-71
2021/05/07 00:08:54;;;;;;;9.65;2.80;;;;;;;15.05;51.22;94489.25;2970217;39;20135;-72
2021/05/07 00:10:56;;;;;;;3.63;2.40;;;;;;;15.19;51.05;94487.53;2973188;39;20055;-70
2021/05/07 00:13:01;;;;;;;5.32;2.78;;;;;;;15.34;50.95;94480.31;2975361;39;20399;-69
2021/05/07 00:15:03;;;;;;;5.28;2.70;;;;;;;15.46;50.18;94481.38;2971668;39;20523;-70
2021/05/07 00:17:04;;;;;;;4.90;2.90;;;;;;;15.62;49.58;94490.03;2962444;40;20497;-68
2021/05/07 00:19:06;;;;;;;4.78;2.85;;;;;;;15.74;49.04;94488.47;2965819;40;20060;-70
2021/05/07 00:21:12;;;;;;;4.18;2.80;;;;;;;15.81;49.22;94489.34;2972648;39;20452;-69
2021/05/07 00:23:14;;;;;;;4.90;2.70;;;;;;;15.87;48.85;94483.25;2971575;39;20049;-68
2021/05/07 00:25:15;;;;;;;5.45;2.58;;;;;;;15.93;49.00;94481.66;2967575;40;20143;-69
2021/05/07 00:27:17;;;;;;;5.38;2.88;;;;;;;15.95;48.41;94475.16;2966874;40;20063;-70
2021/05/07 00:29:19;;;;;;;12.50;2.70;;;;;;;15.99;48.46;94469.50;2970260;39;20538;-70
2021/05/07 00:31:20;;;;;;;3.92;2.55;;;;;;;15.99;48.62;94465.03;2973972;39;20409;-71
2021/05/07 00:33:21;;;;;;;3.92;2.47;;;;;;;16.01;48.44;94468.28;2973534;39;20044;-70
2021/05/07 00:35:23;;;;;;;3.92;2.70;;;;;;;16.01;48.26;94470.94;2966579;39;20072;-69
2021/05/07 00:37:24;;;;;;;5.63;2.83;;;;;;;16.01;48.76;94472.75;2973086;39;20068;-70
2021/05/07 00:39:25;;;;;;;5.25;2.70;;;;;;;16.01;49.04;94473.56;2968581;39;20073;-69
2021/05/07 00:41:26;;;;;;;6.15;2.78;;;;;;;16.04;48.81;94475.81;2974403;39;20078;-70
2021/05/07 00:43:28;;;;;;;6.38;2.78;;;;;;;16.04;48.81;94477.63;2973369;39;20080;-70
2021/05/07 00:45:30;;;;;;;4.57;2.75;;;;;;;16.01;49.38;94470.13;2966763;39;20060;-70
2021/05/07 00:47:33;;;;;;;5.28;3.00;;;;;;;16.07;48.79;94469.31;2966685;40;20048;-71
2021/05/07 00:49:36;;;;;;;4.72;2.78;;;;;;;16.08;48.73;94473.59;2965813;40;20073;-70
2021/05/07 00:51:38;;;;;;;6.72;2.65;;;;;;;16.10;48.68;94474.19;2966561;40;20055;-69
2021/05/07 00:53:39;;;;;;;5.70;2.47;;;;;;;16.05;48.65;94476.63;2964903;40;20074;-70
2021/05/07 00:55:40;;;;;;;6.13;2.25;;;;;;;16.02;48.69;94479.66;2973364;39;20092;-69
2021/05/07 00:57:42;;;;;;;5.43;2.33;;;;;;;16.02;48.99;94471.72;2972968;39;20056;-70
2021/05/07 00:59:43;;;;;;;3.97;2.55;;;;;;;16.03;48.62;94468.91;2967971;39;20052;-71
2021/05/07 01:01:44;;;;;;;4.03;2.20;;;;;;;16.01;48.81;94475.41;2972901;39;20058;-70
2021/05/07 01:03:45;;;;;;;4.13;2.28;;;;;;;15.98;48.91;94468.66;2974059;39;20140;-70
2021/05/07 01:05:47;;;;;;;2.80;2.08;;;;;;;15.95;49.19;94472.53;2969020;39;20053;-71
2021/05/07 01:07:51;;;;;;;8.35;3.38;;;;;;;15.96;49.17;94470.72;2971410;39;20063;-70
2021/05/07 01:09:52;;;;;;;5.05;2.50;;;;;;;16.00;49.03;94465.81;2968933;40;20060;-70
2021/05/07 01:11:53;;;;;;;4.43;2.28;;;;;;;16.02;49.25;94471.72;2970163;39;20072;-70
2021/05/07 01:13:55;;;;;;;4.68;2.28;;;;;;;15.99;49.24;94466.84;2972311;39;20441;-70
2021/05/07 01:15:56;;;;;;;4.68;2.40;;;;;;;16.00;49.17;94476.41;2973394;39;20423;-70
2021/05/07 01:17:58;;;;;;;5.47;2.30;;;;;;;15.97;49.34;94481.06;2965650;40;20421;-70
2021/05/07 01:20:07;;;;;;;4.97;2.20;;;;;;;15.92;49.56;94478.22;2960791;40;20053;-70
2021/05/07 01:22:09;;;;;;;3.63;2.42;;;;;;;15.93;49.38;94479.03;2970774;39;20505;-70
2021/05/07 01:24:10;;;;;;;3.70;2.15;;;;;;;15.89;49.11;94475.94;2968163;40;20137;-70
2021/05/07 01:26:11;;;;;;;4.28;2.13;;;;;;;15.86;49.54;94479.00;2966357;40;20148;-70
2021/05/07 01:28:14;;;;;;;4.47;2.17;;;;;;;15.82;49.44;94472.47;2974239;39;20068;-71
2021/05/07 01:30:43;;;;;;;5.50;2.25;;;;;;;15.79;49.32;94470.25;2973646;39;20640;-70
2021/05/07 01:32:45;;;;;;;5.40;2.40;;;;;;;15.72;49.69;94470.22;2967692;39;20106;-70
2021/05/07 01:34:47;;;;;;;7.17;2.63;;;;;;;15.71;49.90;94468.56;2972562;39;20132;-70
2021/05/07 01:36:48;;;;;;;3.95;2.45;;;;;;;15.69;50.33;94470.56;2972026;39;20064;-71
2021/05/07 01:38:49;;;;;;;3.35;2.25;;;;;;;15.64;49.99;94469.50;2968830;40;20378;-71
2021/05/07 01:40:52;;;;;;;5.15;2.70;;;;;;;15.55;50.13;94469.69;2973720;39;20184;-70
2021/05/07 01:42:53;;;;;;;9.48;2.35;;;;;;;15.52;50.14;94470.06;2972475;39;20044;-69
2021/05/07 01:44:55;;;;;;;5.25;2.40;;;;;;;15.51;50.24;94471.09;2972232;39;20068;-70
2021/05/07 01:46:56;;;;;;;4.50;1.98;;;;;;;15.49;50.21;94459.91;2971703;39;20055;-71
2021/05/07 01:48:57;;;;;;;4.15;2.00;;;;;;;15.51;50.33;94462.34;2974052;39;20032;-71
2021/05/07 01:51:00;;;;;;;4.55;2.90;;;;;;;15.50;50.11;94466.78;2972347;39;20116;-70
2021/05/07 01:53:01;;;;;;;5.57;2.45;;;;;;;15.48;50.15;94460.91;2963625;40;20304;-70
2021/05/07 01:55:06;;;;;;;2.50;1.77;;;;;;;15.43;50.38;94465.16;2967752;40;20132;-70
2021/05/07 01:57:07;;;;;;;4.05;2.40;;;;;;;15.40;50.72;94462.88;2966796;40;20075;-70
2021/05/07 01:59:09;;;;;;;3.17;2.25;;;;;;;15.37;50.88;94456.16;2973507;39;20483;-71
2021/05/07 02:01:10;;;;;;;4.88;2.45;;;;;;;15.33;51.21;94460.22;2966790;39;20097;-71
2021/05/07 02:03:12;;;;;;;5.85;3.17;;;;;;;15.26;51.38;94460.16;2967212;40;20154;-70
2021/05/07 02:05:14;;;;;;;4.93;2.20;;;;;;;15.25;51.04;94455.91;2971025;39;20055;-85
2021/05/07 02:07:16;;;;;;;4.45;2.40;;;;;;;15.25;51.24;94458.56;2971430;39;20060;-81
2021/05/07 02:09:18;;;;;;;6.88;2.40;;;;;;;15.28;50.93;94459.97;2968273;40;20081;-82
2021/05/07 02:11:19;;;;;;;5.88;2.60;;;;;;;15.29;50.94;94464.25;2971768;39;20125;-82
2021/05/07 02:13:20;;;;;;;3.92;2.40;;;;;;;15.28;51.32;94457.34;2968673;40;20064;-81
2021/05/07 02:15:23;;;;;;;3.38;2.03;;;;;;;15.30;51.27;94452.69;2969301;40;20056;-71
2021/05/07 02:17:24;;;;;;;3.38;2.10;;;;;;;15.34;51.31;94451.28;2969459;39;20043;-69
2021/05/07 02:19:25;;;;;;;3.40;2.35;;;;;;;15.36;51.16;94450.09;2971631;39;20052;-71
2021/05/07 02:21:26;;;;;;;5.32;2.50;;;;;;;15.38;50.96;94441.97;2971500;39;20071;-70
2021/05/07 02:23:28;;;;;;;5.45;2.95;;;;;;;15.38;50.99;94446.41;2966904;40;20081;-70
2021/05/07 02:25:29;;;;;;;5.15;3.13;;;;;;;15.37;50.93;94445.63;2967116;40;20476;-71
2021/05/07 02:27:30;;;;;;;6.55;3.42;;;;;;;15.33;51.09;94439.91;2972758;39;20060;-70
2021/05/07 02:29:32;;;;;;;5.82;2.60;;;;;;;15.36;51.10;94441.34;2972139;39;20145;-70
2021/05/07 02:31:33;;;;;;;5.20;2.50;;;;;;;15.37;51.04;94456.16;2967730;40;20068;-70
2021/05/07 02:33:38;;;;;;;4.45;2.08;;;;;;;15.37;50.90;94442.97;2966999;40;20060;-70
2021/05/07 02:35:39;;;;;;;4.40;2.40;;;;;;;15.37;50.91;94442.97;2966852;39;20097;-70
2021/05/07 02:37:41;;;;;;;6.78;2.42;;;;;;;15.35;51.23;94445.00;2966060;40;20065;-70
2021/05/07 02:39:42;;;;;;;6.20;2.33;;;;;;;15.33;51.49;94444.38;2973912;39;20153;-70
2021/05/07 02:41:43;;;;;;;3.90;2.70;;;;;;;15.33;51.50;94449.66;2972064;39;20049;-70
2021/05/07 02:43:45;;;;;;;4.70;2.67;;;;;;;15.30;51.79;94450.06;2965868;40;20053;-69
2021/05/07 02:45:46;;;;;;;4.63;2.63;;;;;;;15.25;51.80;94449.78;2968234;39;20056;-71
2021/05/07 02:47:47;;;;;;;5.72;2.95;;;;;;;15.19;52.16;94455.88;2967615;40;20100;-71
2021/05/07 02:49:49;;;;;;;4.95;2.25;;;;;;;15.12;52.15;94453.16;2967349;40;20057;-70
2021/05/07 02:51:50;;;;;;;5.50;3.03;;;;;;;15.07;52.52;94456.38;2972144;39;20078;-69
2021/05/07 02:53:51;;;;;;;5.20;2.13;;;;;;;15.07;52.45;94456.38;2967109;39;20316;-69
2021/05/07 02:55:53;;;;;;;4.30;3.15;;;;;;;15.09;52.31;94454.38;2972588;39;20216;-71
2021/05/07 02:57:54;;;;;;;4.88;2.40;;;;;;;15.04;52.22;94454.16;2973586;39;20092;-71
2021/05/07 02:59:55;;;;;;;6.88;2.65;;;;;;;14.98;53.22;94462.81;2970186;39;20401;-69
2021/05/07 03:01:56;;;;;;;6.55;3.33;;;;;;;14.85;53.52;94468.00;2968051;39;20405;-69
2021/05/07 03:03:58;;;;;;;5.55;3.13;;;;;;;14.84;53.62;94463.72;2971048;39;20055;-70
2021/05/07 03:05:59;;;;;;;4.53;2.78;;;;;;;14.85;53.71;94468.00;2972289;39;20122;-71
2021/05/07 03:08:00;;;;;;;6.85;2.80;;;;;;;14.84;53.89;94456.66;2967627;39;20049;-71
2021/05/07 03:10:02;;;;;;;5.50;3.08;;;;;;;14.82;53.39;94463.09;2964394;40;20072;-70
2021/05/07 03:12:07;;;;;;;6.15;2.75;;;;;;;14.82;53.71;94457.81;2969460;39;20056;-70
2021/05/07 03:14:08;;;;;;;4.38;2.47;;;;;;;14.88;53.50;94462.34;2967437;40;20409;-74
2021/05/07 03:16:09;;;;;;;4.75;3.15;;;;;;;14.90;53.13;94466.41;2971184;39;20075;-69
2021/05/07 03:18:21;;;;;;;4.45;2.35;;;;;;;14.95;53.16;94471.13;2972644;39;20328;-69
2021/05/07 03:20:22;;;;;;;5.93;3.08;;;;;;;14.98;53.21;94467.28;2967522;40;20144;-70
2021/05/07 03:22:24;;;;;;;10.52;3.67;;;;;;;14.82;53.77;94469.19;2967245;40;20060;-70
2021/05/07 03:24:26;;;;;;;8.20;3.00;;;;;;;14.75;54.23;94473.59;2968542;40;20546;-70
2021/05/07 03:26:27;;;;;;;6.60;3.80;;;;;;;14.64;54.48;94477.56;2967825;40;20132;-69
2021/05/07 03:28:29;;;;;;;12.15;3.15;;;;;;;14.18;55.49;94485.81;2967628;39;20505;-70
2021/05/07 03:30:32;;;;;;;6.28;2.60;;;;;;;14.04;56.03;94482.19;2967653;39;20307;-70
2021/05/07 03:32:33;;;;;;;5.38;2.83;;;;;;;14.13;55.84;94480.25;2970537;39;20056;-69
2021/05/07 03:34:35;;;;;;;10.10;3.33;;;;;;;14.26;55.82;94485.69;2969827;39;20055;-70
2021/05/07 03:36:36;;;;;;;5.60;3.15;;;;;;;14.38;55.34;94485.19;2967881;40;20082;-82
2021/05/07 03:38:38;;;;;;;4.70;2.85;;;;;;;14.51;55.13;94480.03;2968640;39;20068;-71
2021/05/07 03:40:39;;;;;;;8.10;3.22;;;;;;;14.63;54.63;94485.66;2966573;39;20056;-72
2021/05/07 03:42:40;;;;;;;5.55;2.88;;;;;;;14.77;54.66;94491.88;2970737;39;20083;-70
2021/05/07 03:44:42;;;;;;;9.45;2.85;;;;;;;14.88;53.97;94488.72;2964654;40;20325;-71
2021/05/07 03:46:43;;;;;;;5.20;3.20;;;;;;;14.97;53.88;94492.03;2968275;39;20064;-70
2021/05/07 03:48:44;;;;;;;7.00;3.35;;;;;;;14.92;54.37;94489.97;2972161;39;20056;-72
2021/05/07 03:50:52;;;;;;;7.13;3.38;;;;;;;14.67;54.20;94495.66;2972469;39;20093;-72
2021/05/07 03:52:54;;;;;;;7.47;3.42;;;;;;;14.53;54.81;94496.47;2958815;40;20056;-69
2021/05/07 03:54:55;;;;;;;7.93;3.13;;;;;;;14.48;55.02;94497.06;2967397;40;20152;-71
2021/05/07 03:56:57;;;;;;;9.50;3.30;;;;;;;14.21;55.46;94498.59;2971695;39;20052;-71
2021/05/07 03:58:59;;;;;;;6.35;3.38;;;;;;;14.00;56.46;94498.53;2974659;39;20051;-82
2021/05/07 04:01:01;;;;;;;5.88;3.28;;;;;;;14.17;55.90;94499.16;2972359;39;20375;-82
2021/05/07 04:03:03;;;;;;;6.63;2.80;;;;;;;14.41;55.05;94492.72;2971855;39;20056;-82
2021/05/07 04:05:05;;;;;;;8.40;3.33;;;;;;;14.61;54.33;94493.75;2976349;40;20056;-83
2021/05/07 04:07:06;;;;;;;8.15;3.15;;;;;;;14.36;54.56;94503.00;2971745;39;20340;-81
2021/05/07 04:09:14;;;;;;;12.13;4.10;;;;;;;13.90;55.89;94504.94;2972702;39;20075;-83
2021/05/07 04:15:40;;;;;;;7.07;4.20;;;;;;;14.12;55.91;94516.31;2971065;40;20064;-83
2021/05/07 04:17:42;;;;;;;9.20;3.72;;;;;;;14.38;55.45;94517.63;2973138;39;20056;-83
2021/05/07 04:19:43;;;;;;;10.15;3.78;;;;;;;14.58;54.65;94515.22;2972154;39;20095;-84
2021/05/07 04:21:44;;;;;;;8.55;3.83;;;;;;;14.69;54.40;94521.81;2973529;40;20096;-81
2021/05/07 04:23:45;;;;;;;10.07;3.80;;;;;;;14.83;53.90;94517.47;2979806;39;20334;-81
2021/05/07 04:25:47;;;;;;;9.30;4.13;;;;;;;14.96;53.45;94522.88;2979590;39;20051;-80
2021/05/07 04:27:48;;;;;;;9.57;4.20;;;;;;;15.00;53.27;94524.13;2982830;40;20067;-85
2021/05/07 04:29:49;;;;;;;9.40;3.70;;;;;;;14.86;53.73;94523.19;2978012;39;20048;-82
2021/05/07 04:31:50;;;;;;;6.30;3.85;;;;;;;14.99;53.58;94530.38;2974925;39;20071;-81
2021/05/07 04:33:53;;;;;;;7.28;4.15;;;;;;;15.01;53.25;94519.66;2969974;39;20092;-83
2021/05/07 04:35:54;;;;;;;9.43;4.18;;;;;;;14.98;53.36;94520.84;2972067;39;20052;-82
2021/05/07 04:37:55;;;;;;;9.38;4.15;;;;;;;14.92;53.61;94529.53;2967806;39;20049;-83
2021/05/07 04:39:57;;;;;;;5.43;3.55;;;;;;;14.94;53.63;94524.88;2973201;39;20052;-81
2021/05/07 04:41:58;;;;;;;11.55;4.95;;;;;;;14.97;53.05;94526.31;2976122;39;20066;-82
2021/05/07 04:43:59;;;;;;;11.43;4.18;;;;;;;15.01;53.25;94532.84;2976564;39;20052;-83
2021/05/07 04:46:00;;;;;;;10.30;5.05;;;;;;;15.06;52.96;94522.56;2970674;40;20060;-82
2021/05/07 04:48:02;;;;;;;6.82;3.60;;;;;;;15.21;52.76;94533.00;2973028;39;20044;-70
2021/05/07 04:50:08;;;;;;;7.65;4.13;;;;;;;15.34;52.44;94538.38;2973005;39;20120;-70
2021/05/07 04:52:09;;;;;;;9.65;3.50;;;;;;;15.26;52.38;94536.69;2971813;39;20055;-70
2021/05/07 04:54:11;;;;;;;8.82;3.78;;;;;;;15.28;52.46;94539.97;2965653;40;20116;-71
2021/05/07 04:56:12;;;;;;;10.63;4.55;;;;;;;15.42;51.88;94538.22;2969101;39;20312;-69
2021/05/07 04:58:14;;;;;;;9.77;4.40;;;;;;;15.56;51.66;94532.03;2970926;39;20340;-71
2021/05/07 05:00:15;;;;;;;6.88;4.15;;;;;;;15.70;51.56;94540.03;2972334;39;20120;-71
2021/05/07 05:02:16;;;;;;;6.97;4.47;;;;;;;15.84;51.31;94530.41;2969313;39;20096;-70
2021/05/07 05:04:18;;;;;;;10.15;4.38;;;;;;;15.92;51.57;94538.97;2967222;40;20064;-69
2021/05/07 05:06:19;;;;;;;6.38;3.67;;;;;;;16.01;51.50;94531.69;2970300;39;20049;-70
2021/05/07 05:08:22;;;;;;;7.95;4.72;;;;;;;16.14;51.44;94530.94;2971486;39;20059;-72
2021/05/07 05:10:23;;;;;;;11.40;4.78;;;;;;;16.23;50.80;94529.75;2972453;39;20071;-73
2021/05/07 05:12:25;;;;;;;9.30;4.97;;;;;;;16.33;50.60;94530.19;2974182;39;20109;-72
2021/05/07 05:14:26;;;;;;;7.57;4.47;;;;;;;16.38;50.85;94540.97;2969770;39;20481;-83
2021/05/07 05:16:27;;;;;;;9.40;5.03;;;;;;;16.34;51.29;94537.09;2977718;39;20062;-84
2021/05/07 05:18:33;;;;;;;11.15;5.50;;;;;;;16.23;51.14;94544.78;2971730;39;20056;-84
2021/05/07 05:20:35;;;;;;;7.53;4.88;;;;;;;16.04;51.60;94547.13;2970535;40;20467;-84
2021/05/07 05:22:37;;;;;;;10.70;5.40;;;;;;;15.89;51.68;94546.47;2976342;39;20067;-85
2021/05/07 05:24:38;;;;;;;7.13;4.97;;;;;;;15.54;52.73;94546.44;2976768;39;20071;-84
2021/05/07 05:26:39;;;;;;;9.32;5.25;;;;;;;15.25;53.70;94548.28;2977786;40;20276;-81
2021/05/07 05:28:40;;;;;;;9.90;5.32;;;;;;;15.23;54.06;94538.91;2973644;39;20064;-81
2021/05/07 05:30:42;;;;;;;8.90;5.55;;;;;;;15.56;53.55;94539.13;2974329;39;20059;-83
2021/05/07 05:32:43;;;;;;;11.60;5.32;;;;;;;15.93;52.53;94547.69;2974695;39;20084;-82
2021/05/07 05:34:44;;;;;;;13.15;5.38;;;;;;;16.25;50.80;94540.94;2973842;39;20068;-84
2021/05/07 05:36:46;;;;;;;7.85;4.38;;;;;;;16.29;50.34;94544.00;2975883;39;20109;-82
2021/05/07 05:38:48;;;;;;;7.75;4.60;;;;;;;16.17;50.31;94536.66;2968664;39;20084;-71
2021/05/07 05:40:49;;;;;;;5.85;4.28;;;;;;;16.29;49.23;94544.00;2961760;40;20393;-71
2021/05/07 05:42:50;;;;;;;8.65;4.63;;;;;;;16.06;49.50;94547.75;2969557;39;20064;-71
2021/05/07 05:44:51;;;;;;;5.97;3.97;;;;;;;16.22;49.58;94538.69;2968042;40;20476;-72
2021/05/07 05:46:53;;;;;;;8.90;4.05;;;;;;;16.31;48.82;94531.41;2968271;39;20060;-69
2021/05/07 05:48:54;;;;;;;6.07;4.00;;;;;;;16.11;49.21;94533.94;2972989;39;20074;-73
2021/05/07 05:50:55;;;;;;;7.22;4.25;;;;;;;16.18;49.36;94542.75;2971527;40;20067;-84
2021/05/07 05:52:57;;;;;;;5.90;4.00;;;;;;;16.41;48.98;94537.09;2968901;40;20052;-86
2021/05/07 05:54:58;;;;;;;7.40;4.03;;;;;;;16.54;48.78;94539.81;2970726;40;20048;-82
2021/05/07 05:56:59;;;;;;;6.32;4.32;;;;;;;16.55;48.63;94541.44;2972016;39;20055;-82
2021/05/07 05:59:03;;;;;;;6.88;3.88;;;;;;;16.64;47.96;94539.41;2973366;39;20296;-80
2021/05/07 06:01:04;;;;;;;13.20;4.35;;;;;;;16.72;47.66;94541.88;2970299;39;20076;-83
2021/05/07 06:03:06;;;;;;;5.25;3.88;;;;;;;16.69;47.35;94542.28;2978599;39;20055;-85
2021/05/07 06:05:09;;;;;;;8.30;4.25;;;;;;;16.83;47.71;94542.34;2975132;39;20058;-84
2021/05/07 06:07:10;;;;;;;6.88;4.00;;;;;;;17.01;46.98;94550.50;2972744;39;20180;-82
2021/05/07 06:09:11;;;;;;;8.27;4.97;;;;;;;17.20;46.93;94547.03;2969678;40;20082;-82
2021/05/07 06:11:12;;;;;;;9.60;3.88;;;;;;;17.34;46.15;94547.06;2972906;39;20049;-71
2021/05/07 06:13:13;;;;;;;7.03;4.03;;;;;;;17.52;45.85;94547.22;2967869;40;20320;-71
2021/05/07 06:15:17;;;;;;;6.75;4.10;;;;;;;17.73;45.69;94553.31;2967320;40;20060;-71
2021/05/07 06:17:18;;;;;;;7.82;4.40;;;;;;;17.84;45.03;94555.38;2967717;40;20056;-72
2021/05/07 06:19:20;;;;;;;6.18;4.05;;;;;;;17.99;45.00;94552.47;2972166;39;20356;-71
2021/05/07 06:21:21;;;;;;;9.07;4.00;;;;;;;18.00;44.73;94544.31;2972788;39;20060;-70
2021/05/07 06:23:22;;;;;;;6.28;3.70;;;;;;;18.05;44.46;94541.03;2965769;40;20048;-71
2021/05/07 06:25:26;;;;;;;7.00;3.72;;;;;;;18.11;44.42;94542.88;2968160;39;20079;-69
2021/05/07 06:27:28;;;;;;;7.20;3.75;;;;;;;18.24;44.33;94535.84;2969291;39;20062;-71
2021/05/07 06:29:29;;;;;;;4.93;3.30;;;;;;;18.41;44.33;94532.53;2975219;39;20056;-71
2021/05/07 06:31:31;;;;;;;8.52;3.50;;;;;;;18.56;43.85;94534.06;2970298;39;20041;-72
2021/05/07 06:33:33;;;;;;;7.28;3.78;;;;;;;18.65;43.78;94534.63;2967381;40;20370;-71
2021/05/07 06:35:34;;;;;;;8.65;3.78;;;;;;;18.73;44.12;94534.41;2975204;39;20060;-71
2021/05/07 06:37:35;;;;;;;6.97;3.33;;;;;;;18.90;43.90;94530.22;2972138;39;20088;-72
2021/05/07 06:39:37;;;;;;;7.15;3.30;;;;;;;19.03;43.09;94529.31;2966736;39;20049;-72
2021/05/07 06:41:38;;;;;;;9.43;3.90;;;;;;;19.01;42.86;94526.06;2973693;39;20055;-72
2021/05/07 06:43:40;;;;;;;11.35;3.83;;;;;;;18.66;42.44;94523.81;2961736;40;20060;-70
2021/05/07 06:45:41;;;;;;;8.48;4.32;;;;;;;18.76;43.29;94526.03;2973706;39;20060;-71
2021/05/07 06:47:43;;;;;;;4.35;3.22;;;;;;;18.46;42.73;94525.78;2967432;40;20145;-69
2021/05/07 06:49:44;;;;;;;9.38;4.15;;;;;;;17.78;44.30;94521.72;2968296;39;20139;-72
2021/05/07 06:51:46;;;;;;;5.70;3.03;;;;;;;17.76;44.67;94529.06;2968316;39;20093;-71
2021/05/07 06:53:47;;;;;;;5.88;4.35;;;;;;;17.81;44.95;94510.72;2963680;40;20059;-71
2021/05/07 06:55:48;;;;;;;7.40;4.05;;;;;;;17.96;44.49;94524.56;2970135;39;20628;-71
2021/05/07 06:58:10;;;;;;;9.35;4.00;;;;;;;18.27;44.60;94517.69;2967525;40;20032;-72
2021/05/07 07:00:11;;;;;;;7.65;3.63;;;;;;;18.49;43.62;94517.41;2971143;39;20071;-70
2021/05/07 07:02:14;;;;;;;12.45;3.90;;;;;;;18.58;42.66;94511.63;2974367;39;20056;-82
2021/05/07 07:04:15;;;;;;;7.30;3.25;;;;;;;18.78;42.49;94506.22;2976227;39;20088;-83
2021/05/07 07:06:16;;;;;;;8.10;3.78;;;;;;;18.94;42.72;94504.06;2968796;39;20076;-81
2021/05/07 07:08:18;;;;;;;8.32;3.75;;;;;;;19.06;42.44;94501.53;2968862;39;20084;-83
2021/05/07 07:10:19;;;;;;;7.30;5.20;;;;;;;19.08;42.41;94505.63;2973302;39;20059;-82
2021/05/07 07:12:21;;;;;;;8.40;3.70;;;;;;;19.23;42.44;94500.78;2976211;39;20096;-84
2021/05/07 07:14:23;;;;;;;5.95;3.40;;;;;;;19.38;41.72;94494.31;2972945;39;20136;-83
2021/05/07 07:16:25;;;;;;;4.85;2.83;;;;;;;19.54;41.35;94498.25;2976472;39;20361;-82
2021/05/07 07:18:26;;;;;;;5.25;3.05;;;;;;;19.76;41.00;94501.34;2975009;39;20136;-84
2021/05/07 07:20:30;;;;;;;9.40;3.78;;;;;;;19.86;41.25;94500.84;2973633;39;20420;-84
2021/05/07 07:22:32;;;;;;;10.43;3.00;;;;;;;19.63;40.62;94494.28;2973764;39;20135;-85
2021/05/07 07:24:37;;;;;;;6.32;3.45;;;;;;;19.34;41.08;94495.81;2975678;39;20046;-84
2021/05/07 07:26:38;;;;;;;6.53;3.17;;;;;;;18.91;41.76;94493.91;2975798;39;20059;-81
2021/05/07 07:28:41;;;;;;;6.07;2.83;;;;;;;18.90;42.03;94486.97;2969261;39;20064;-83
2021/05/07 07:30:42;;;;;;;6.78;3.20;;;;;;;19.14;41.97;94490.63;2973197;39;20046;-81
2021/05/07 07:32:43;;;;;;;6.65;3.20;;;;;;;19.23;41.32;94482.19;2968631;39;20274;-84
2021/05/07 07:34:48;;;;;;;6.05;3.30;;;;;;;19.61;41.37;94485.72;2974772;39;20388;-83
2021/05/07 07:36:49;;;;;;;7.00;2.92;;;;;;;19.83;40.31;94483.47;2969840;39;20421;-84
2021/05/07 07:38:50;;;;;;;5.75;2.90;;;;;;;20.03;39.78;94470.75;2976097;39;21339;-83
2021/05/07 07:40:52;;;;;;;6.28;3.30;;;;;;;20.27;39.90;94475.41;2970510;40;20386;-83
2021/05/07 07:42:53;;;;;;;4.70;2.78;;;;;;;20.45;39.55;94470.81;2975221;39;20056;-82
2021/05/07 07:44:55;;;;;;;7.00;3.55;;;;;;;20.64;39.35;94466.28;2976925;39;20083;-82
2021/05/07 07:46:56;;;;;;;12.98;5.57;;;;;;;20.52;39.56;94460.13;2976824;39;20244;-84
2021/05/07 07:48:58;;;;;;;4.75;3.25;;;;;;;20.61;38.51;94452.66;2975291;39;20170;-83
2021/05/07 07:50:59;;;;;;;6.88;3.50;;;;;;;20.55;38.79;94451.66;2966974;40;20072;-84
2021/05/07 07:53:01;;;;;;;8.82;2.85;;;;;;;20.76;38.70;94450.38;2966686;40;20096;-83
2021/05/07 07:55:03;;;;;;;9.05;3.90;;;;;;;20.77;38.02;94448.50;2973908;39;20056;-83
2021/05/07 07:57:05;;;;;;;7.72;3.03;;;;;;;20.68;38.34;94448.03;2974380;39;20088;-80
2021/05/07 07:59:06;;;;;;;6.25;3.10;;;;;;;20.51;38.80;94447.84;2976259;39;20357;-82
2021/05/07 08:01:08;;;;;;;8.85;2.88;;;;;;;20.63;39.16;94443.41;2978487;39;20070;-83
2021/05/07 08:03:09;;;;;;;8.70;2.70;;;;;;;20.73;39.27;94442.03;2975054;39;20137;-82
2021/05/07 08:05:12;;;;;;;4.32;3.08;;;;;;;20.67;39.09;94443.72;2973540;39;20395;-83
2021/05/07 08:07:13;;;;;;;7.00;2.95;;;;;;;20.78;38.61;94439.47;2970753;39;20101;-83
2021/05/07 08:09:14;;;;;;;5.43;2.95;;;;;;;20.48;38.74;94442.16;2974359;39;20055;-71
2021/05/07 08:11:16;;;;;;;6.95;3.30;;;;;;;20.72;39.05;94430.56;2970684;39;20120;-73
2021/05/07 08:13:18;;;;;;;5.43;2.88;;;;;;;21.01;38.27;94428.84;2973463;39;20060;-72
2021/05/07 08:15:22;;;;;;;4.82;2.80;;;;;;;21.22;37.71;94424.00;2963108;40;20064;-73
2021/05/07 08:17:25;;;;;;;9.48;3.72;;;;;;;21.40;37.62;94426.56;2967915;39;20078;-72
2021/05/07 08:19:31;;;;;;;6.57;2.70;;;;;;;21.28;37.64;94431.09;2970326;39;20079;-70
2021/05/07 08:21:32;;;;;;;6.75;3.00;;;;;;;21.19;37.51;94424.50;2971261;40;20140;-83
2021/05/07 08:23:33;;;;;;;5.82;3.05;;;;;;;21.03;37.80;94432.09;2972114;39;20136;-81
2021/05/07 08:25:35;;;;;;;6.70;3.38;;;;;;;20.87;37.98;94427.47;2970659;39;20068;-81
2021/05/07 08:27:37;;;;;;;11.18;3.50;;;;;;;21.02;37.60;94421.69;2972130;40;20424;-83
2021/05/07 08:29:40;;;;;;;7.57;2.67;;;;;;;21.17;37.50;94421.25;2975564;39;20040;-83
2021/05/07 08:31:41;;;;;;;7.57;3.22;;;;;;;21.40;37.78;94415.06;2970016;39;20052;-84
2021/05/07 08:33:43;;;;;;;7.88;3.28;;;;;;;21.61;36.92;94419.84;2973086;39;20326;-83
2021/05/07 08:35:44;;;;;;;9.75;3.10;;;;;;;21.76;37.08;94418.53;2970378;39;20064;-84
2021/05/07 08:37:45;;;;;;;8.13;4.35;;;;;;;21.82;36.25;94410.41;2969777;39;20056;-83
2021/05/07 08:39:46;;;;;;;5.22;3.38;;;;;;;21.43;37.33;94412.00;2967742;40;20699;-83
2021/05/07 08:41:49;;;;;;;8.13;3.47;;;;;;;21.33;37.31;94414.41;2973372;39;20055;-84
2021/05/07 08:43:52;;;;;;;8.70;3.20;;;;;;;20.80;38.02;94422.25;2969534;39;20059;-83
2021/05/07 08:45:54;;;;;;;6.38;2.78;;;;;;;20.53;38.60;94413.03;2967562;40;20055;-83
2021/05/07 08:47:56;;;;;;;6.53;3.65;;;;;;;20.43;38.71;94418.88;2972129;39;20037;-85
2021/05/07 08:49:59;;;;;;;7.25;3.28;;;;;;;20.75;38.68;94419.44;2970551;40;20133;-83
2021/05/07 08:52:00;;;;;;;6.15;2.90;;;;;;;20.52;38.33;94419.38;2972131;40;20376;-84
2021/05/07 08:54:02;;;;;;;10.63;4.80;;;;;;;20.71;38.17;94414.81;2973395;39;20472;-83
2021/05/07 08:56:09;;;;;;;5.97;2.83;;;;;;;20.90;37.45;94405.69;2964990;39;20055;-83
2021/05/07 08:58:10;;;;;;;7.45;2.83;;;;;;;20.82;37.84;94392.72;2969312;39;20436;-84
2021/05/07 09:00:13;;;;;;;7.15;3.28;;;;;;;20.84;37.54;94396.78;2973879;39;20155;-83
2021/05/07 09:02:30;;;;;;;8.90;2.80;;;;;;;21.21;37.48;94393.09;2974704;39;20178;-85
2021/05/07 09:04:31;;;;;;;35.63;16.38;;;;;;;21.67;37.01;94378.13;2969686;40;20051;-83
2021/05/07 09:06:39;;;;;;;8.20;2.65;;;;;;;21.36;36.28;94382.78;2969716;39;20444;-70
2021/05/07 09:08:41;;;;;;;8.50;2.70;;;;;;;21.50;35.58;94388.69;2967702;40;20144;-71
2021/05/07 09:10:46;;;;;;;6.57;2.60;;;;;;;21.71;35.52;94381.13;2970662;39;20512;-71
2021/05/07 09:12:54;;;;;;;13.57;2.75;;;;;;;22.03;35.88;94373.50;2970296;39;20108;-71
2021/05/07 09:14:56;;;;;;;8.48;2.60;;;;;;;22.04;34.75;94370.56;2968707;39;20053;-71
2021/05/07 09:17:03;;;;;;;10.18;2.63;;;;;;;21.96;35.17;94372.78;2969055;39;20101;-69
2021/05/07 09:19:04;;;;;;;7.22;2.58;;;;;;;22.03;34.91;94374.28;2970501;39;20081;-71
2021/05/07 09:21:06;;;;;;;3.70;2.08;;;;;;;21.99;34.21;94380.34;2967591;39;20065;-73
2021/05/07 09:23:12;;;;;;;6.88;2.08;;;;;;;22.15;33.24;94373.41;2970772;39;20119;-73
2021/05/07 09:25:18;;;;;;;3.57;1.73;;;;;;;22.26;32.11;94361.91;2965193;40;20064;-71
2021/05/07 09:27:22;;;;;;;8.32;2.20;;;;;;;22.29;33.15;94366.78;2969134;39;20291;-71
2021/05/07 09:29:26;;;;;;;7.15;3.17;;;;;;;22.35;32.79;94378.34;2968484;39;20073;-73
2021/05/07 09:31:28;;;;;;;5.25;2.30;;;;;;;22.49;33.84;94358.31;2969207;40;20085;-71
2021/05/07 09:33:29;;;;;;;5.57;2.72;;;;;;;22.68;33.48;94351.69;2969794;39;20068;-73
2021/05/07 09:35:30;;;;;;;6.57;2.47;;;;;;;22.78;33.71;94344.88;2968587;39;20055;-71
2021/05/07 09:37:32;;;;;;;4.32;2.63;;;;;;;22.88;33.49;94345.84;2976605;39;20051;-72